sensor_id;sensor_type;location;lat;lon;timestamp;pressure;altitude;pressure_sealevel;temperature;humidity
55759;BME280;41678;52.126;20.664;2023-02-28T00:01:14;101805.03;;;-2.96;80.34
55759;BME280;41678;52.126;20.664;2023-02-28T00:06:35;101788.63;;;-3.10;80.35
55759;BME280;41678;52.126;20.664;2023-02-28T00:11:54;101802.78;;;-3.17;80.67
55759;BME280;41678;52.126;20.664;2023-02-28T00:17:14;101809.81;;;-3.15;80.53
55759;BME280;41678;52.126;20.664;2023-02-28T00:22:34;101813.63;;;-3.21;80.40
55759;BME280;41678;52.126;20.664;2023-02-28T00:27:53;101811.63;;;-3.25;80.35
55759;BME280;41678;52.126;20.664;2023-02-28T00:33:13;101809.66;;;-3.30;80.78
55759;BME280;41678;52.126;20.664;2023-02-28T00:38:33;101810.56;;;-3.41;80.63
55759;BME280;41678;52.126;20.664;2023-02-28T00:43:53;101816.50;;;-3.42;80.64
55759;BME280;41678;52.126;20.664;2023-02-28T00:49:12;101827.41;;;-3.46;80.50
55759;BME280;41678;52.126;20.664;2023-02-28T00:54:32;101820.59;;;-3.58;80.36
55759;BME280;41678;52.126;20.664;2023-02-28T00:59:51;101812.75;;;-3.59;80.60
55759;BME280;41678;52.126;20.664;2023-02-28T01:05:14;101820.25;;;-3.62;80.48
55759;BME280;41678;52.126;20.664;2023-02-28T01:10:33;101813.00;;;-3.68;80.69
55759;BME280;41678;52.126;20.664;2023-02-28T01:15:55;101817.72;;;-3.74;80.71
55759;BME280;41678;52.126;20.664;2023-02-28T01:21:16;101813.91;;;-3.79;80.75
55759;BME280;41678;52.126;20.664;2023-02-28T01:26:37;101806.75;;;-3.84;80.50
55759;BME280;41678;52.126;20.664;2023-02-28T01:32:00;101816.16;;;-3.96;80.79
55759;BME280;41678;52.126;20.664;2023-02-28T01:37:20;101814.06;;;-4.02;80.89
55759;BME280;41678;52.126;20.664;2023-02-28T01:42:39;101818.31;;;-4.02;80.78
55759;BME280;41678;52.126;20.664;2023-02-28T01:48:04;101814.75;;;-4.16;80.57
55759;BME280;41678;52.126;20.664;2023-02-28T01:53:32;101820.09;;;-4.13;80.88
55759;BME280;41678;52.126;20.664;2023-02-28T01:58:54;101820.31;;;-4.22;80.72
55759;BME280;41678;52.126;20.664;2023-02-28T02:04:14;101817.63;;;-4.23;80.79
55759;BME280;41678;52.126;20.664;2023-02-28T02:09:35;101810.34;;;-4.29;80.70
55759;BME280;41678;52.126;20.664;2023-02-28T02:15:16;101812.34;;;-4.37;81.04
55759;BME280;41678;52.126;20.664;2023-02-28T02:27:01;101817.94;;;-4.43;80.92
55759;BME280;41678;52.126;20.664;2023-02-28T02:38:11;101822.06;;;-4.45;80.77
55759;BME280;41678;52.126;20.664;2023-02-28T02:43:38;101814.78;;;-4.62;81.13
55759;BME280;41678;52.126;20.664;2023-02-28T02:49:04;101824.41;;;-4.60;80.87
55759;BME280;41678;52.126;20.664;2023-02-28T03:01:23;101825.94;;;-4.74;81.12
55759;BME280;41678;52.126;20.664;2023-02-28T03:06:48;101830.63;;;-4.80;80.81
55759;BME280;41678;52.126;20.664;2023-02-28T03:12:09;101835.13;;;-4.77;81.17
55759;BME280;41678;52.126;20.664;2023-02-28T03:23:13;101822.34;;;-4.88;81.18
55759;BME280;41678;52.126;20.664;2023-02-28T03:28:58;101836.84;;;-4.88;81.05
55759;BME280;41678;52.126;20.664;2023-02-28T03:34:41;101837.16;;;-4.95;80.99
55759;BME280;41678;52.126;20.664;2023-02-28T03:40:06;101841.03;;;-5.01;81.18
55759;BME280;41678;52.126;20.664;2023-02-28T03:45:33;101837.78;;;-5.10;81.21
55759;BME280;41678;52.126;20.664;2023-02-28T03:50:57;101849.19;;;-5.06;80.73
55759;BME280;41678;52.126;20.664;2023-02-28T03:56:30;101843.56;;;-5.13;80.86
55759;BME280;41678;52.126;20.664;2023-02-28T04:01:50;101848.34;;;-5.17;81.10
55759;BME280;41678;52.126;20.664;2023-02-28T04:07:11;101849.03;;;-5.20;81.16
55759;BME280;41678;52.126;20.664;2023-02-28T04:12:31;101847.34;;;-5.19;81.38
55759;BME280;41678;52.126;20.664;2023-02-28T04:17:50;101854.81;;;-5.22;81.15
55759;BME280;41678;52.126;20.664;2023-02-28T04:23:10;101846.09;;;-5.24;81.31
55759;BME280;41678;52.126;20.664;2023-02-28T04:28:29;101850.75;;;-5.31;81.70
55759;BME280;41678;52.126;20.664;2023-02-28T04:33:49;101853.84;;;-5.35;81.55
55759;BME280;41678;52.126;20.664;2023-02-28T04:39:08;101852.06;;;-5.36;81.88
55759;BME280;41678;52.126;20.664;2023-02-28T04:44:29;101853.75;;;-5.36;81.35
55759;BME280;41678;52.126;20.664;2023-02-28T04:49:49;101853.59;;;-5.38;81.43
55759;BME280;41678;52.126;20.664;2023-02-28T04:55:08;101850.31;;;-5.47;81.34
55759;BME280;41678;52.126;20.664;2023-02-28T05:00:28;101853.78;;;-5.47;81.66
55759;BME280;41678;52.126;20.664;2023-02-28T05:05:47;101862.91;;;-5.50;81.32
55759;BME280;41678;52.126;20.664;2023-02-28T05:11:14;101871.94;;;-5.56;81.74
55759;BME280;41678;52.126;20.664;2023-02-28T05:16:34;101863.22;;;-5.58;81.57
55759;BME280;41678;52.126;20.664;2023-02-28T05:21:54;101877.59;;;-5.60;81.85
55759;BME280;41678;52.126;20.664;2023-02-28T05:27:14;101882.47;;;-5.63;81.82
55759;BME280;41678;52.126;20.664;2023-02-28T05:32:34;101883.13;;;-5.65;82.03
55759;BME280;41678;52.126;20.664;2023-02-28T05:37:53;101884.91;;;-5.64;81.71
55759;BME280;41678;52.126;20.664;2023-02-28T05:43:13;101895.28;;;-5.63;81.67
55759;BME280;41678;52.126;20.664;2023-02-28T05:48:33;101900.31;;;-5.64;81.65
55759;BME280;41678;52.126;20.664;2023-02-28T05:53:53;101902.88;;;-5.64;81.59
55759;BME280;41678;52.126;20.664;2023-02-28T05:59:13;101907.25;;;-5.63;81.56
55759;BME280;41678;52.126;20.664;2023-02-28T06:04:32;101909.81;;;-5.63;81.73
55759;BME280;41678;52.126;20.664;2023-02-28T06:09:52;101915.03;;;-5.62;81.67
55759;BME280;41678;52.126;20.664;2023-02-28T06:15:14;101919.69;;;-5.58;81.68
55759;BME280;41678;52.126;20.664;2023-02-28T06:20:34;101921.34;;;-5.58;81.72
55759;BME280;41678;52.126;20.664;2023-02-28T06:25:54;101928.63;;;-5.52;81.70
55759;BME280;41678;52.126;20.664;2023-02-28T06:31:18;101923.88;;;-5.48;81.50
55759;BME280;41678;52.126;20.664;2023-02-28T06:36:38;101921.00;;;-5.41;81.62
55759;BME280;41678;52.126;20.664;2023-02-28T06:41:59;101917.25;;;-5.34;82.00
55759;BME280;41678;52.126;20.664;2023-02-28T06:47:18;101911.06;;;-5.26;81.79
55759;BME280;41678;52.126;20.664;2023-02-28T06:52:37;101912.56;;;-5.17;82.19
55759;BME280;41678;52.126;20.664;2023-02-28T06:57:58;101903.31;;;-5.15;81.95
55759;BME280;41678;52.126;20.664;2023-02-28T07:03:18;101906.94;;;-5.01;82.38
55759;BME280;41678;52.126;20.664;2023-02-28T07:08:38;101904.97;;;-4.93;82.65
55759;BME280;41678;52.126;20.664;2023-02-28T07:13:59;101893.88;;;-4.82;82.55
55759;BME280;41678;52.126;20.664;2023-02-28T07:19:19;101893.13;;;-4.69;82.51
55759;BME280;41678;52.126;20.664;2023-02-28T07:24:39;101909.06;;;-4.51;82.70
55759;BME280;41678;52.126;20.664;2023-02-28T07:29:58;101902.47;;;-4.47;82.61
55759;BME280;41678;52.126;20.664;2023-02-28T07:35:21;101912.34;;;-4.30;82.39
55759;BME280;41678;52.126;20.664;2023-02-28T07:40:41;101910.56;;;-4.19;82.91
55759;BME280;41678;52.126;20.664;2023-02-28T07:46:11;101910.94;;;-4.02;82.70
55759;BME280;41678;52.126;20.664;2023-02-28T07:51:32;101917.44;;;-3.84;82.92
55759;BME280;41678;52.126;20.664;2023-02-28T07:56:52;101915.75;;;-3.59;82.51
55759;BME280;41678;52.126;20.664;2023-02-28T08:02:15;101908.22;;;-3.44;82.61
55759;BME280;41678;52.126;20.664;2023-02-28T08:07:35;101904.59;;;-3.22;82.71
55759;BME280;41678;52.126;20.664;2023-02-28T08:12:55;101906.47;;;-3.08;83.07
55759;BME280;41678;52.126;20.664;2023-02-28T08:18:15;101905.13;;;-2.77;82.56
55759;BME280;41678;52.126;20.664;2023-02-28T08:23:34;101902.03;;;-2.60;82.46
55759;BME280;41678;52.126;20.664;2023-02-28T08:28:54;101897.59;;;-2.49;82.80
55759;BME280;41678;52.126;20.664;2023-02-28T08:34:15;101893.97;;;-2.25;82.77
55759;BME280;41678;52.126;20.664;2023-02-28T08:39:36;101894.38;;;-2.06;82.62
55759;BME280;41678;52.126;20.664;2023-02-28T08:44:56;101897.09;;;-1.91;83.07
55759;BME280;41678;52.126;20.664;2023-02-28T08:50:16;101894.72;;;-1.74;82.43
55759;BME280;41678;52.126;20.664;2023-02-28T08:55:35;101894.81;;;-1.59;82.57
55759;BME280;41678;52.126;20.664;2023-02-28T09:00:55;101904.03;;;-1.36;82.60
55759;BME280;41678;52.126;20.664;2023-02-28T09:06:16;101895.34;;;-1.23;81.38
55759;BME280;41678;52.126;20.664;2023-02-28T09:11:36;101901.97;;;-1.13;81.25
55759;BME280;41678;52.126;20.664;2023-02-28T09:16:55;101905.75;;;-1.08;81.62
55759;BME280;41678;52.126;20.664;2023-02-28T09:22:15;101911.00;;;-1.06;81.86
55759;BME280;41678;52.126;20.664;2023-02-28T09:27:35;101919.44;;;-0.95;81.70
55759;BME280;41678;52.126;20.664;2023-02-28T09:32:54;101917.78;;;-0.80;81.29
55759;BME280;41678;52.126;20.664;2023-02-28T09:38:14;101916.06;;;-0.66;80.55
55759;BME280;41678;52.126;20.664;2023-02-28T09:43:37;101907.22;;;-0.69;79.74
55759;BME280;41678;52.126;20.664;2023-02-28T09:49:04;101918.03;;;-0.62;80.29
55759;BME280;41678;52.126;20.664;2023-02-28T09:54:26;101916.78;;;-0.53;80.02
55759;BME280;41678;52.126;20.664;2023-02-28T10:05:22;101922.09;;;-0.37;79.77
55759;BME280;41678;52.126;20.664;2023-02-28T10:10:49;101920.75;;;-0.30;79.15
55759;BME280;41678;52.126;20.664;2023-02-28T10:16:32;101911.63;;;-0.23;79.52
55759;BME280;41678;52.126;20.664;2023-02-28T10:22:00;101913.25;;;-0.10;78.82
55759;BME280;41678;52.126;20.664;2023-02-28T10:27:24;101914.94;;;-0.11;78.55
55759;BME280;41678;52.126;20.664;2023-02-28T10:32:49;101922.28;;;-0.04;78.67
55759;BME280;41678;52.126;20.664;2023-02-28T10:38:16;101913.50;;;0.09;78.45
55759;BME280;41678;52.126;20.664;2023-02-28T10:43:38;101908.59;;;0.14;78.82
55759;BME280;41678;52.126;20.664;2023-02-28T10:49:07;101907.91;;;0.17;78.37
55759;BME280;41678;52.126;20.664;2023-02-28T10:54:36;101911.09;;;0.27;77.93
55759;BME280;41678;52.126;20.664;2023-02-28T11:00:18;101904.19;;;0.28;78.35
55759;BME280;41678;52.126;20.664;2023-02-28T11:05:46;101891.69;;;0.36;77.86
55759;BME280;41678;52.126;20.664;2023-02-28T11:11:08;101891.22;;;0.43;77.89
55759;BME280;41678;52.126;20.664;2023-02-28T11:16:33;101887.28;;;0.50;76.60
55759;BME280;41678;52.126;20.664;2023-02-28T11:21:57;101885.50;;;0.49;76.03
55759;BME280;41678;52.126;20.664;2023-02-28T11:32:48;101882.59;;;0.59;76.85
55759;BME280;41678;52.126;20.664;2023-02-28T11:38:12;101870.78;;;0.64;75.38
55759;BME280;41678;52.126;20.664;2023-02-28T11:43:58;101855.13;;;0.63;76.30
55759;BME280;41678;52.126;20.664;2023-02-28T11:49:44;101843.72;;;0.76;75.51
55759;BME280;41678;52.126;20.664;2023-02-28T12:06:16;101827.78;;;0.84;75.60
55759;BME280;41678;52.126;20.664;2023-02-28T12:17:19;101817.47;;;0.86;75.26
55759;BME280;41678;52.126;20.664;2023-02-28T12:28:30;101816.44;;;0.99;76.09
55759;BME280;41678;52.126;20.664;2023-02-28T12:34:00;101810.66;;;1.05;76.33
55759;BME280;41678;52.126;20.664;2023-02-28T12:39:44;101796.81;;;1.04;75.37
55759;BME280;41678;52.126;20.664;2023-02-28T12:45:10;101785.53;;;1.04;74.93
55759;BME280;41678;52.126;20.664;2023-02-28T12:50:32;101779.84;;;1.11;75.35
55759;BME280;41678;52.126;20.664;2023-02-28T13:13:26;101773.19;;;1.16;76.28
55759;BME280;41678;52.126;20.664;2023-02-28T13:18:48;101763.78;;;1.18;76.32
55759;BME280;41678;52.126;20.664;2023-02-28T13:24:08;101778.72;;;1.22;75.28
55759;BME280;41678;52.126;20.664;2023-02-28T13:29:34;101774.41;;;1.23;75.23
55759;BME280;41678;52.126;20.664;2023-02-28T13:46:13;101756.56;;;1.12;75.95
55759;BME280;41678;52.126;20.664;2023-02-28T13:51:39;101747.75;;;1.09;76.62
55759;BME280;41678;52.126;20.664;2023-02-28T14:08:21;101718.69;;;1.16;74.91
55759;BME280;41678;52.126;20.664;2023-02-28T14:13:44;101721.97;;;1.12;75.54
55759;BME280;41678;52.126;20.664;2023-02-28T14:19:28;101720.44;;;1.16;75.44
55759;BME280;41678;52.126;20.664;2023-02-28T14:31:04;101712.41;;;1.11;76.10
55759;BME280;41678;52.126;20.664;2023-02-28T14:36:37;101713.47;;;1.15;76.18
55759;BME280;41678;52.126;20.664;2023-02-28T14:41:59;101706.06;;;1.22;75.66
55759;BME280;41678;52.126;20.664;2023-02-28T14:47:30;101702.78;;;1.26;75.44
55759;BME280;41678;52.126;20.664;2023-02-28T14:52:55;101700.88;;;1.22;75.84
55759;BME280;41678;52.126;20.664;2023-02-28T14:58:33;101701.44;;;1.17;76.06
55759;BME280;41678;52.126;20.664;2023-02-28T15:03:59;101695.94;;;1.10;76.21
55759;BME280;41678;52.126;20.664;2023-02-28T15:09:20;101690.50;;;1.06;76.51
55759;BME280;41678;52.126;20.664;2023-02-28T15:14:43;101689.63;;;1.05;76.41
55759;BME280;41678;52.126;20.664;2023-02-28T15:20:04;101696.84;;;1.11;76.78
55759;BME280;41678;52.126;20.664;2023-02-28T15:25:24;101695.69;;;1.06;76.92
55759;BME280;41678;52.126;20.664;2023-02-28T15:30:54;101689.41;;;1.01;77.60
55759;BME280;41678;52.126;20.664;2023-02-28T15:36:16;101685.84;;;0.98;77.63
55759;BME280;41678;52.126;20.664;2023-02-28T15:41:40;101689.97;;;0.95;77.67
55759;BME280;41678;52.126;20.664;2023-02-28T15:47:03;101690.56;;;0.89;78.09
55759;BME280;41678;52.126;20.664;2023-02-28T15:52:34;101689.34;;;0.82;78.28
55759;BME280;41678;52.126;20.664;2023-02-28T15:58:00;101693.50;;;0.79;78.28
55759;BME280;41678;52.126;20.664;2023-02-28T16:03:44;101698.06;;;0.66;77.99
55759;BME280;41678;52.126;20.664;2023-02-28T16:09:06;101700.25;;;0.59;78.61
55759;BME280;41678;52.126;20.664;2023-02-28T16:14:28;101701.53;;;0.50;77.81
55759;BME280;41678;52.126;20.664;2023-02-28T16:19:51;101695.00;;;0.40;77.88
55759;BME280;41678;52.126;20.664;2023-02-28T16:25:15;101691.75;;;0.28;78.22
55759;BME280;41678;52.126;20.664;2023-02-28T16:30:34;101698.88;;;0.16;78.28
55759;BME280;41678;52.126;20.664;2023-02-28T16:35:54;101694.00;;;0.05;78.05
55759;BME280;41678;52.126;20.664;2023-02-28T16:41:23;101708.41;;;0.00;78.28
55759;BME280;41678;52.126;20.664;2023-02-28T16:46:43;101707.81;;;-0.11;78.42
55759;BME280;41678;52.126;20.664;2023-02-28T16:52:03;101712.41;;;-0.22;78.79
55759;BME280;41678;52.126;20.664;2023-02-28T16:57:23;101712.88;;;-0.29;78.17
55759;BME280;41678;52.126;20.664;2023-02-28T17:02:43;101694.94;;;-0.41;78.70
55759;BME280;41678;52.126;20.664;2023-02-28T17:08:03;101705.66;;;-0.50;78.92
55759;BME280;41678;52.126;20.664;2023-02-28T17:13:23;101697.84;;;-0.66;79.04
55759;BME280;41678;52.126;20.664;2023-02-28T17:18:43;101719.97;;;-0.72;78.85
55759;BME280;41678;52.126;20.664;2023-02-28T17:24:03;101729.16;;;-0.77;78.60
55759;BME280;41678;52.126;20.664;2023-02-28T17:29:23;101734.69;;;-0.86;78.68
55759;BME280;41678;52.126;20.664;2023-02-28T17:34:43;101740.22;;;-0.94;78.92
55759;BME280;41678;52.126;20.664;2023-02-28T17:40:06;101733.88;;;-1.00;78.88
55759;BME280;41678;52.126;20.664;2023-02-28T17:45:26;101719.44;;;-1.11;79.19
55759;BME280;41678;52.126;20.664;2023-02-28T17:50:45;101722.63;;;-1.15;79.22
55759;BME280;41678;52.126;20.664;2023-02-28T17:56:05;101728.31;;;-1.21;79.10
55759;BME280;41678;52.126;20.664;2023-02-28T18:01:25;101727.06;;;-1.27;79.08
55759;BME280;41678;52.126;20.664;2023-02-28T18:06:45;101723.31;;;-1.33;78.78
55759;BME280;41678;52.126;20.664;2023-02-28T18:12:08;101720.19;;;-1.42;78.92
55759;BME280;41678;52.126;20.664;2023-02-28T18:17:28;101717.22;;;-1.48;79.43
55759;BME280;41678;52.126;20.664;2023-02-28T18:22:47;101711.88;;;-1.51;78.65
55759;BME280;41678;52.126;20.664;2023-02-28T18:28:07;101699.19;;;-1.62;79.36
55759;BME280;41678;52.126;20.664;2023-02-28T18:33:27;101686.16;;;-1.78;79.31
55759;BME280;41678;52.126;20.664;2023-02-28T18:38:48;101685.44;;;-1.76;79.12
55759;BME280;41678;52.126;20.664;2023-02-28T18:44:09;101695.56;;;-1.79;79.29
55759;BME280;41678;52.126;20.664;2023-02-28T18:49:30;101678.81;;;-1.86;79.17
55759;BME280;41678;52.126;20.664;2023-02-28T18:54:52;101670.09;;;-1.88;79.71
55759;BME280;41678;52.126;20.664;2023-02-28T19:00:13;101651.06;;;-2.03;79.45
55759;BME280;41678;52.126;20.664;2023-02-28T19:05:34;101662.38;;;-2.01;79.93
55759;BME280;41678;52.126;20.664;2023-02-28T19:10:54;101657.81;;;-2.05;79.57
55759;BME280;41678;52.126;20.664;2023-02-28T19:16:15;101652.88;;;-2.16;79.92
55759;BME280;41678;52.126;20.664;2023-02-28T19:21:35;101663.03;;;-2.19;79.58
55759;BME280;41678;52.126;20.664;2023-02-28T19:26:55;101680.09;;;-2.21;79.71
55759;BME280;41678;52.126;20.664;2023-02-28T19:32:16;101684.88;;;-2.27;80.26
55759;BME280;41678;52.126;20.664;2023-02-28T19:37:38;101691.03;;;-2.25;79.59
55759;BME280;41678;52.126;20.664;2023-02-28T19:42:58;101694.50;;;-2.38;79.76
55759;BME280;41678;52.126;20.664;2023-02-28T19:48:18;101692.53;;;-2.42;79.37
55759;BME280;41678;52.126;20.664;2023-02-28T19:53:43;101697.38;;;-2.47;79.68
55759;BME280;41678;52.126;20.664;2023-02-28T19:59:03;101704.31;;;-2.46;79.49
55759;BME280;41678;52.126;20.664;2023-02-28T20:04:24;101696.81;;;-2.56;80.17
55759;BME280;41678;52.126;20.664;2023-02-28T20:09:45;101702.75;;;-2.57;80.03
55759;BME280;41678;52.126;20.664;2023-02-28T20:15:05;101714.88;;;-2.56;79.93
55759;BME280;41678;52.126;20.664;2023-02-28T20:20:26;101718.72;;;-2.63;80.16
55759;BME280;41678;52.126;20.664;2023-02-28T20:26:00;101718.00;;;-2.74;80.19
55759;BME280;41678;52.126;20.664;2023-02-28T20:31:23;101710.78;;;-2.79;80.24
55759;BME280;41678;52.126;20.664;2023-02-28T20:36:43;101707.00;;;-2.85;80.28
55759;BME280;41678;52.126;20.664;2023-02-28T20:42:03;101705.50;;;-2.94;80.63
55759;BME280;41678;52.126;20.664;2023-02-28T20:47:22;101707.69;;;-2.87;80.11
55759;BME280;41678;52.126;20.664;2023-02-28T20:52:42;101692.72;;;-2.93;80.22
55759;BME280;41678;52.126;20.664;2023-02-28T20:58:03;101684.88;;;-2.94;80.55
55759;BME280;41678;52.126;20.664;2023-02-28T21:03:22;101687.25;;;-2.97;80.03
55759;BME280;41678;52.126;20.664;2023-02-28T21:08:42;101683.50;;;-3.03;80.45
55759;BME280;41678;52.126;20.664;2023-02-28T21:14:04;101690.00;;;-3.08;80.32
55759;BME280;41678;52.126;20.664;2023-02-28T21:19:24;101705.06;;;-3.14;80.36
55759;BME280;41678;52.126;20.664;2023-02-28T21:24:43;101698.81;;;-3.18;80.12
55759;BME280;41678;52.126;20.664;2023-02-28T21:30:04;101696.09;;;-3.19;80.24
55759;BME280;41678;52.126;20.664;2023-02-28T21:35:23;101691.16;;;-3.30;80.62
55759;BME280;41678;52.126;20.664;2023-02-28T21:40:43;101690.38;;;-3.29;80.63
55759;BME280;41678;52.126;20.664;2023-02-28T21:46:05;101679.63;;;-3.35;80.54
55759;BME280;41678;52.126;20.664;2023-02-28T21:51:28;101691.50;;;-3.37;80.45
55759;BME280;41678;52.126;20.664;2023-02-28T21:56:49;101686.84;;;-3.43;80.41
55759;BME280;41678;52.126;20.664;2023-02-28T22:02:11;101690.19;;;-3.44;80.56
55759;BME280;41678;52.126;20.664;2023-02-28T22:07:31;101694.28;;;-3.47;80.26
55759;BME280;41678;52.126;20.664;2023-02-28T22:12:51;101701.69;;;-3.52;80.32
55759;BME280;41678;52.126;20.664;2023-02-28T22:18:10;101697.31;;;-3.53;80.59
55759;BME280;41678;52.126;20.664;2023-02-28T22:23:30;101688.28;;;-3.60;80.49
55759;BME280;41678;52.126;20.664;2023-02-28T22:28:51;101677.53;;;-3.66;80.32
55759;BME280;41678;52.126;20.664;2023-02-28T22:34:11;101678.13;;;-3.70;80.51
55759;BME280;41678;52.126;20.664;2023-02-28T22:39:31;101676.00;;;-3.76;80.58
55759;BME280;41678;52.126;20.664;2023-02-28T22:44:51;101681.38;;;-3.73;80.36
55759;BME280;41678;52.126;20.664;2023-02-28T22:50:11;101676.47;;;-3.81;80.85
55759;BME280;41678;52.126;20.664;2023-02-28T22:55:30;101674.59;;;-3.84;80.59
55759;BME280;41678;52.126;20.664;2023-02-28T23:00:49;101672.81;;;-3.85;81.05
55759;BME280;41678;52.126;20.664;2023-02-28T23:06:25;101680.22;;;-3.90;80.45
55759;BME280;41678;52.126;20.664;2023-02-28T23:11:47;101681.81;;;-3.92;80.68
55759;BME280;41678;52.126;20.664;2023-02-28T23:17:07;101675.66;;;-3.94;80.86
55759;BME280;41678;52.126;20.664;2023-02-28T23:22:26;101678.97;;;-3.95;80.62
55759;BME280;41678;52.126;20.664;2023-02-28T23:27:47;101692.75;;;-3.94;80.59
55759;BME280;41678;52.126;20.664;2023-02-28T23:33:07;101687.19;;;-4.01;80.92
55759;BME280;41678;52.126;20.664;2023-02-28T23:38:26;101685.41;;;-4.02;80.86
55759;BME280;41678;52.126;20.664;2023-02-28T23:43:46;101681.13;;;-4.01;80.73
55759;BME280;41678;52.126;20.664;2023-02-28T23:49:06;101670.06;;;-4.00;80.51
55759;BME280;41678;52.126;20.664;2023-02-28T23:54:26;101671.53;;;-4.04;80.55
55759;BME280;41678;52.126;20.664;2023-02-28T23:59:45;101676.44;;;-4.07;80.56
